KMBS/MBS METAR and TAF weather

Enter ICAO airport designator
Station Type Date Time Source
KMBS METAR 2018/12/13 21:53 UTC NOAA

KMBS 132153Z 20007KT 6SM HZ OVC023 02/M02 A3019 RMK AO2 SLP230 T00221022


Station Type Date Time Source
KMBS Decoded METAR 2018/12/13 21:53 UTC NOAA

MBS INTERNATIONAL AIRPORT, MI, United States (KMBS) 43-32N 084-05W 202M
Dec 13, 2018 - 04:53 PM EST / 2018.12.13 2153 UTC
Wind: from the SSW (200 degrees) at 8 MPH (7 KT):0
Visibility: 6 mile(s):0
Sky conditions: overcast
Weather: haze
Temperature: 36.0 F (2.2 C)
Dew Point: 28.0 F (-2.2 C)
Relative Humidity: 72%
Pressure (altimeter): 30.19 in. Hg (1022 hPa)
ob: KMBS 132153Z 20007KT 6SM HZ OVC023 02/M02 A3019 RMK AO2 SLP230 T00221022
cycle: 22

Station Type Date Time Source
KMBS TAF 2018/12/13 18:30 UTC NOAA

TAF KMBS 131728Z 1318/1418 15005KT P6SM SCT025 BKN200
TEMPO 1319/1321 6SM BR BKN020
FM140100 14005KT 4SM BR OVC025
FM140500 VRB03KT 2SM BR OVC019
FM140900 16005KT 4SM -RA BR OVC015
TEMPO 1411/1415 2SM -RA BR OVC010


Example: see airport list